Dunglen, Ohio
Current Conditions -  °F | °C
As of 2:53 AM on Sunday 23 Nov 2014 (Local Time) from KHLG Reporting Station
Overcast Overcast  
Wind Chill:   Ceiling: 7000
Heat Index:   Visibility: 10mi
Dew Point: -2°   Wind: 10mph
Humidity: 48%   Direction: 190°S
Pressure: 30.1"   Gusts: NA
Location:  40.2215°N, 80.8189°W
Report Text: KHLG 230753Z AUTO 19009KT 10SM BKN070 BKN080 OVC095 09/M02 A3010 RMK AO2 RAB35E49 SLP199 P0000 T00891017
Loading
Personal Weather Stations






























Interactive Weather Map New forecast layout! Learn more

10-Day Weather Forecast

Advertisements
Track Severe Weather on mobile